createdAt,value
2018-04-11T00:02:00.326Z,100486.41
2018-04-11T00:06:51.348Z,100495.92
2018-04-11T00:11:42.340Z,100486.95
2018-04-11T00:16:33.599Z,100489.67
2018-04-11T00:21:24.664Z,100498.47
2018-04-11T00:26:16.440Z,100504.02
2018-04-11T00:31:07.495Z,100495.20
2018-04-11T00:35:58.528Z,100511.47
2018-04-11T00:40:49.536Z,100511.44
2018-04-11T00:45:41.366Z,100521.48
2018-04-11T00:50:32.392Z,100528.41
2018-04-11T00:55:23.448Z,100529.34
2018-04-11T01:00:15.397Z,100527.70
2018-04-11T01:05:07.151Z,100524.83
2018-04-11T01:09:58.193Z,100529.03
2018-04-11T01:14:49.219Z,100532.08
2018-04-11T01:19:40.329Z,100524.75
2018-04-11T01:24:31.357Z,100531.27
2018-04-11T01:29:22.369Z,100527.56
2018-04-11T01:34:13.436Z,100526.29
2018-04-11T01:39:04.448Z,100534.39
2018-04-11T01:43:55.560Z,100534.20
2018-04-11T01:48:46.563Z,100532.02
2018-04-11T01:53:38.345Z,100535.65
2018-04-11T01:58:29.367Z,100536.44
2018-04-11T02:03:20.528Z,100529.88
2018-04-11T02:08:11.626Z,100527.70
2018-04-11T02:13:02.662Z,100529.16
2018-04-11T02:17:53.681Z,100531.05
2018-04-11T02:22:44.691Z,100533.03
2018-04-11T02:27:35.741Z,100533.82
2018-04-11T02:32:26.755Z,100534.41
2018-04-11T02:37:17.775Z,100533.16
2018-04-11T02:42:08.811Z,100525.20
2018-04-11T02:46:59.838Z,100520.55
2018-04-11T02:51:50.856Z,100517.79
2018-04-11T02:56:41.899Z,100527.52
2018-04-11T03:01:33.680Z,100536.27
2018-04-11T03:06:24.745Z,100532.18
2018-04-11T03:11:15.777Z,100535.14
2018-04-11T03:16:06.839Z,100533.81
2018-04-11T03:20:57.870Z,100538.57
2018-04-11T03:25:49.000Z,100536.20
2018-04-11T03:30:40.084Z,100537.94
2018-04-11T03:35:31.104Z,100537.66
2018-04-11T03:40:22.144Z,100540.27
2018-04-11T03:45:13.920Z,100526.89
2018-04-11T03:50:05.064Z,100532.84
2018-04-11T03:54:56.079Z,100535.20
2018-04-11T03:59:47.105Z,100543.56
2018-04-11T04:04:38.161Z,100548.72
2018-04-11T04:09:29.180Z,100548.89
2018-04-11T04:14:38.817Z,100550.97
2018-04-11T04:19:48.693Z,100558.36
2018-04-11T04:24:39.918Z,100565.05
2018-04-11T04:29:30.926Z,100567.31
2018-04-11T04:34:21.971Z,100574.73
2018-04-11T04:39:13.000Z,100577.52
2018-04-11T04:44:04.799Z,100580.97
2018-04-11T04:48:55.839Z,100588.51
2018-04-11T04:53:46.967Z,100594.01
2018-04-11T04:58:38.011Z,100599.74
2018-04-11T05:03:29.171Z,100605.94
2018-04-11T05:08:20.964Z,100613.97
2018-04-11T05:13:12.011Z,100618.68
2018-04-11T05:18:03.029Z,100624.55
2018-04-11T05:22:54.080Z,100622.70
2018-04-11T05:27:45.929Z,100625.69
2018-04-11T05:32:37.007Z,100626.67
2018-04-11T05:37:28.033Z,100625.64
2018-04-11T05:42:19.092Z,100628.19
2018-04-11T05:47:10.870Z,100633.19
2018-04-11T05:52:01.935Z,100634.91
2018-04-11T05:56:53.754Z,100639.09
2018-04-11T06:01:44.959Z,100638.72
2018-04-11T06:06:35.976Z,100632.89
2018-04-11T06:11:27.056Z,100630.27
2018-04-11T06:16:18.093Z,100633.60
2018-04-11T06:21:09.945Z,100630.69
2018-04-11T06:26:01.740Z,100646.88
2018-04-11T06:30:52.750Z,100648.30
2018-04-11T06:35:43.854Z,100638.73
2018-04-11T06:40:34.902Z,100647.34
2018-04-11T06:45:26.105Z,100651.91
2018-04-11T06:50:17.203Z,100652.86
2018-04-11T06:55:09.034Z,100645.50
2018-04-11T07:00:00.792Z,100649.80
2018-04-11T07:04:52.541Z,100652.75
2018-04-11T07:09:43.607Z,100649.02
2018-04-11T07:14:34.653Z,100628.53
2018-04-11T07:19:25.760Z,100633.86
2018-04-11T07:24:16.795Z,100633.04
2018-04-11T07:29:07.918Z,100622.75
2018-04-11T07:33:58.947Z,100620.61
2018-04-11T07:38:50.045Z,100616.63
2018-04-11T07:43:41.081Z,100624.72
2018-04-11T07:48:32.161Z,100623.30
2018-04-11T07:53:23.180Z,100623.05
2018-04-11T07:58:14.237Z,100616.91
2018-04-11T08:03:05.407Z,100621.67
2018-04-11T08:07:57.184Z,100630.08
2018-04-11T08:12:48.219Z,100621.52
2018-04-11T08:17:39.244Z,100630.08
2018-04-11T08:22:30.525Z,100623.83
2018-04-11T08:27:22.316Z,100627.80
2018-04-11T08:32:13.344Z,100625.95
2018-04-11T08:37:04.390Z,100625.09
2018-04-11T08:41:55.511Z,100623.42
2018-04-11T08:46:46.547Z,100620.80
2018-04-11T08:51:37.680Z,100614.61
2018-04-11T08:56:29.505Z,100609.58
2018-04-11T09:01:21.584Z,100618.23
2018-04-11T09:06:13.524Z,100613.73
2018-04-11T09:11:05.460Z,100613.72
2018-04-11T09:20:55.432Z,100620.34
2018-04-11T09:25:46.459Z,100612.75
2018-04-11T09:30:37.483Z,100609.13
2018-04-11T09:35:28.560Z,100612.05
2018-04-11T09:40:19.637Z,100607.07
2018-04-11T09:45:10.692Z,100611.03
2018-04-11T09:50:01.713Z,100614.55
2018-04-11T09:54:52.755Z,100607.29
2018-04-11T09:59:44.843Z,100606.48
2018-04-11T10:04:35.939Z,100605.62
2018-04-11T10:09:27.713Z,100609.46
2018-04-11T10:14:18.761Z,100592.67
2018-04-11T10:19:10.816Z,100592.75
2018-04-11T10:29:29.239Z,100597.63
2018-04-11T10:34:20.333Z,100595.48
2018-04-11T10:39:11.435Z,100592.08
2018-04-11T10:44:02.509Z,100599.52
2018-04-11T10:48:53.590Z,100596.20
2018-04-11T10:53:44.652Z,100592.30
2018-04-11T10:58:35.796Z,100598.74
2018-04-11T11:03:26.855Z,100597.02
2018-04-11T11:08:17.920Z,100599.39
2018-04-11T11:13:08.947Z,100593.52
2018-04-11T11:17:59.996Z,100591.40
2018-04-11T11:22:51.891Z,100590.05
2018-04-11T11:27:43.627Z,100587.02
2018-04-11T11:32:34.853Z,100587.13
2018-04-11T11:37:26.109Z,100582.08
2018-04-11T11:42:17.227Z,100585.73
2018-04-11T11:47:08.265Z,100592.02
2018-04-11T11:51:59.463Z,100584.62
2018-04-11T11:56:50.560Z,100583.89
2018-04-11T12:01:41.679Z,100579.33
2018-04-11T12:06:32.691Z,100579.92
2018-04-11T12:11:24.446Z,100559.73
2018-04-11T12:16:15.531Z,100563.76
2018-04-11T12:21:06.565Z,100556.28
2018-04-11T12:25:58.324Z,100551.77
2018-04-11T12:30:50.164Z,100542.41
2018-04-11T12:35:41.955Z,100550.16
2018-04-11T12:40:33.031Z,100549.33
2018-04-11T12:45:24.880Z,100544.69
2018-04-11T12:50:16.657Z,100540.33
2018-04-11T12:55:07.730Z,100545.84
2018-04-11T12:59:59.629Z,100550.28
2018-04-11T13:04:51.527Z,100526.80
2018-04-11T13:09:43.477Z,100534.91
2018-04-11T13:14:35.369Z,100532.11
2018-04-11T13:19:26.462Z,100523.69
2018-04-11T13:24:17.517Z,100524.13
2018-04-11T13:29:08.608Z,100538.89
2018-04-11T13:33:59.648Z,100535.39
2018-04-11T13:38:50.655Z,100532.28
2018-04-11T13:43:41.693Z,100536.92
2018-04-11T13:48:32.772Z,100530.16
2018-04-11T13:53:24.569Z,100512.03
2018-04-11T13:58:15.602Z,100526.20
2018-04-11T14:03:06.599Z,100526.31
2018-04-11T14:07:57.735Z,100516.88
2018-04-11T14:12:48.750Z,100531.59
2018-04-11T14:17:39.817Z,100526.73
2018-04-11T14:22:30.849Z,100520.92
2018-04-11T14:27:22.622Z,100514.55
2018-04-11T14:32:13.676Z,100515.47
2018-04-11T14:37:04.789Z,100515.06
2018-04-11T14:41:55.816Z,100505.16
2018-04-11T14:46:46.883Z,100512.95
2018-04-11T14:51:38.721Z,100499.02
2018-04-11T14:56:30.475Z,100497.73
2018-04-11T15:01:22.322Z,100495.48
2018-04-11T15:06:14.112Z,100492.32
2018-04-11T15:11:05.208Z,100495.02
2018-04-11T15:15:56.302Z,100484.22
2018-04-11T15:20:48.085Z,100494.87
2018-04-11T15:25:39.154Z,100501.86
2018-04-11T15:30:30.932Z,100507.98
2018-04-11T15:35:22.729Z,100504.01
2018-04-11T15:40:13.788Z,100502.30
2018-04-11T15:45:04.819Z,100509.09
2018-04-11T15:49:55.892Z,100508.10
2018-04-11T15:54:46.942Z,100508.47
2018-04-11T15:59:38.032Z,100522.52
2018-04-11T16:04:29.100Z,100523.45
2018-04-11T16:09:20.922Z,100528.87
2018-04-11T16:14:12.013Z,100532.91
2018-04-11T16:19:03.090Z,100532.43
2018-04-11T16:23:54.967Z,100541.41
2018-04-11T16:28:46.047Z,100540.72
2018-04-11T16:33:37.830Z,100548.02
2018-04-11T16:38:28.906Z,100540.27
2018-04-11T16:43:19.983Z,100547.12
2018-04-11T16:48:11.030Z,100547.23
2018-04-11T16:53:02.080Z,100549.66
2018-04-11T16:57:53.124Z,100548.70
2018-04-11T17:02:44.912Z,100540.34
2018-04-11T17:07:36.780Z,100548.55
2018-04-11T17:12:27.855Z,100544.59
2018-04-11T17:17:19.619Z,100548.95
2018-04-11T17:22:29.416Z,100559.91
2018-04-11T17:27:39.158Z,100563.72
2018-04-11T17:32:30.250Z,100569.94
2018-04-11T17:37:21.383Z,100586.91
2018-04-11T17:42:12.440Z,100585.00
2018-04-11T17:47:03.469Z,100583.45
2018-04-11T17:51:54.500Z,100584.81
2018-04-11T17:56:45.509Z,100578.50
2018-04-11T18:01:36.554Z,100583.34
2018-04-11T18:06:27.727Z,100590.64
2018-04-11T18:11:19.500Z,100599.37
2018-04-11T18:16:10.627Z,100590.34
2018-04-11T18:21:01.663Z,100598.42
2018-04-11T18:25:52.693Z,100594.65
2018-04-11T18:30:43.852Z,100599.53
2018-04-11T18:35:35.603Z,100605.70
2018-04-11T18:40:27.432Z,100607.81
2018-04-11T18:45:19.215Z,100609.75
2018-04-11T18:50:10.345Z,100620.13
2018-04-11T18:55:01.384Z,100619.66
2018-04-11T18:59:52.487Z,100616.67
2018-04-11T19:04:43.668Z,100618.75
2018-04-11T19:09:35.456Z,100625.44
2018-04-11T19:14:26.475Z,100626.69
2018-04-11T19:19:17.538Z,100619.47
2018-04-11T19:24:08.526Z,100619.74
2018-04-11T19:28:59.540Z,100618.46
2018-04-11T19:33:50.608Z,100615.73
2018-04-11T19:38:41.616Z,100607.61
2018-04-11T19:43:32.650Z,100619.72
2018-04-11T19:48:23.737Z,100620.41
2018-04-11T19:53:14.786Z,100619.94
2018-04-11T19:58:05.913Z,100616.81
2018-04-11T20:02:56.981Z,100610.45
2018-04-11T20:07:48.845Z,100610.45
2018-04-11T20:12:39.902Z,100613.31
2018-04-11T20:17:30.985Z,100603.72
2018-04-11T20:22:22.816Z,100602.76
2018-04-11T20:27:14.580Z,100605.00
2018-04-11T20:32:06.380Z,100603.82
2018-04-11T20:36:57.566Z,100603.70
2018-04-11T20:41:48.646Z,100594.16
2018-04-11T20:46:39.690Z,100594.17
2018-04-11T20:51:30.691Z,100596.93
2018-04-11T20:56:21.732Z,100598.48
2018-04-11T21:01:12.728Z,100591.71
2018-04-11T21:06:04.917Z,100580.97
2018-04-11T21:10:55.927Z,100588.31
2018-04-11T21:15:47.035Z,100582.48
2018-04-11T21:20:38.064Z,100581.89
2018-04-11T21:25:29.086Z,100575.80
2018-04-11T21:30:20.216Z,100570.88
2018-04-11T21:35:11.325Z,100575.88
2018-04-11T21:40:02.460Z,100565.81
2018-04-11T21:44:53.489Z,100570.95
2018-04-11T21:49:59.032Z,100570.14
2018-04-11T21:54:50.104Z,100565.07
2018-04-11T21:59:41.180Z,100560.03
2018-04-11T22:04:32.219Z,100564.22
2018-04-11T22:09:23.275Z,100555.66
2018-04-11T22:14:14.332Z,100545.98
2018-04-11T22:19:05.388Z,100549.77
2018-04-11T22:23:57.236Z,100550.32
2018-04-11T22:28:48.306Z,100545.03
2018-04-11T22:33:39.351Z,100544.34
2018-04-11T22:38:30.400Z,100533.29
2018-04-11T22:43:21.469Z,100535.85
2018-04-11T22:48:12.538Z,100530.70
2018-04-11T22:53:03.601Z,100533.41
2018-04-11T22:57:54.621Z,100526.75
2018-04-11T23:02:46.434Z,100525.11
2018-04-11T23:07:37.610Z,100513.30
2018-04-11T23:12:28.636Z,100509.50
2018-04-11T23:17:19.735Z,100510.00
2018-04-11T23:22:15.432Z,100509.06
2018-04-11T23:27:06.524Z,100503.09
2018-04-11T23:31:57.582Z,100510.41
2018-04-11T23:36:48.632Z,100504.85
2018-04-11T23:41:40.497Z,100500.89
2018-04-11T23:46:31.514Z,100497.50
2018-04-11T23:51:22.757Z,100490.72
2018-04-11T23:56:13.771Z,100488.53
